KBLH/BLH METAR and TAF weather

Enter ICAO airport designator
Station Type Date Time Source
KBLH METAR 2021/07/28 19:52 UTC NOAA

KBLH 281952Z AUTO 15005KT 10SM CLR 37/16 A2992 RMK AO2 SLP125 T03720161


Station Type Date Time Source
KBLH Decoded METAR 2021/07/28 19:52 UTC NOAA

BLYTHE AIRPORT, CA, United States (KBLH) 33-37N 114-43W 119M
Jul 28, 2021 - 03:52 PM EDT / 2021.07.28 1952 UTC
Wind: from the SSE (150 degrees) at 6 MPH (5 KT):0
Visibility: 10 mile(s):0
Sky conditions: clear
Temperature: 99.0 F (37.2 C)
Heat index: 99.5 F (37.5 C):1
Dew Point: 61.0 F (16.1 C)
Relative Humidity: 28%
Pressure (altimeter): 29.92 in. Hg (1013 hPa)
ob: KBLH 281952Z AUTO 15005KT 10SM CLR 37/16 A2992 RMK AO2 SLP125 T03720161
cycle: 20

Station Type Date Time Source
KBLH TAF 2021/07/28 18:59 UTC NOAA

TAF COR KBLH 281759Z 2818/2918 17007KT P6SM VCSH FEW100 BKN150 BKN250
FM282000 15008KT P6SM FEW150 SCT250
FM282200 15008KT P6SM VCSH SCT150 BKN250
FM290100 17006KT P6SM FEW150 SCT250

Example: see airport list